MDT,Max TemperatureF,Mean TemperatureF,Min TemperatureF,Max Dew PointF,MeanDew PointF,Min DewpointF,Max Humidity, Mean Humidity, Min Humidity, Max Sea Level PressureIn, Mean Sea Level PressureIn, Min Sea Level PressureIn, Max VisibilityMiles, Mean VisibilityMiles, Min VisibilityMiles, Max Wind SpeedMPH, Mean Wind SpeedMPH, Max Gust SpeedMPH,PrecipitationIn, CloudCover, Events, WindDirDegrees
2013-3-1,66,44,21,14,9,1,43,25,13,30.39,30.31,30.25,10,10,10,10,4,,0.00,0,,257
2013-3-2,73,50,26,19,12,7,51,26,8,30.42,30.31,30.22,10,10,10,12,4,9,0.00,0,,182
2013-3-3,77,54,30,18,14,7,44,23,7,30.22,30.09,29.99,10,10,10,23,4,33,0.00,0,,290
2013-3-4,73,57,39,28,20,9,52,23,9,30.14,29.98,29.89,10,10,10,30,11,40,0.00,2,,278
2013-3-5,69,50,30,28,24,19,65,36,18,30.25,30.17,30.11,10,10,7,28,9,34,0.00,0,,130
2013-3-6,77,64,46,27,26,21,40,28,16,30.16,30.07,29.97,10,10,10,17,11,23,0.00,1,,136
2013-3-7,75,54,33,30,23,18,56,29,12,30.06,30.00,29.93,10,10,10,14,3,17,0.00,0,,206
2013-3-8,62,52,41,50,35,19,93,58,28,29.99,29.92,29.83,10,10,4,30,10,39,0.13,6,Rain-Thunderstorm,210
2013-3-9,50,42,33,37,34,32,100,77,50,30.06,29.98,29.94,10,10,7,20,11,31,0.00,6,Rain,299
2013-3-10,57,44,32,34,30,23,100,63,29,30.18,30.11,30.06,10,10,10,13,5,17,0.00,2,,294
2013-3-11,66,46,26,30,24,12,93,48,14,30.23,30.15,30.06,10,10,10,12,4,17,0.00,0,,286
2013-3-12,73,52,32,28,22,16,70,36,12,30.21,30.14,30.10,10,10,10,15,5,21,0.00,0,,151
2013-3-13,78,61,44,25,19,14,43,23,10,30.31,30.24,30.18,10,10,10,20,10,25,0.00,0,,149
2013-3-14,82,58,35,21,14,10,41,20,7,30.31,30.23,30.17,10,10,10,12,5,20,0.00,0,,148
2013-3-15,86,60,33,21,13,10,38,18,6,30.20,30.11,29.99,10,10,10,18,5,24,0.00,0,,252
2013-3-16,82,63,44,27,17,10,37,18,7,30.03,29.94,29.84,10,10,10,25,8,32,0.00,0,,288
2013-3-17,78,60,42,27,19,10,43,21,9,30.00,29.92,29.84,10,10,10,30,9,43,0.00,0,,294
2013-3-18,77,58,39,27,18,10,42,23,8,30.08,30.02,29.97,10,10,10,22,8,29,0.00,0,,287
2013-3-19,73,55,37,25,20,16,45,25,15,30.13,30.05,29.99,10,10,10,17,6,28,0.03,0,,275
2013-3-20,73,56,39,27,22,18,42,27,16,30.20,30.09,29.95,10,10,10,22,7,31,0.00,0,,151
2013-3-21,71,56,42,30,24,19,46,27,16,29.95,29.86,29.79,10,10,10,21,8,28,0.00,0,,297
2013-3-22,73,62,51,28,24,10,41,25,12,29.86,29.80,29.73,10,10,10,31,8,39,0.00,2,,278
2013-3-23,69,58,46,28,16,3,43,22,9,30.02,29.91,29.85,10,10,10,32,14,43,0.00,0,,277
2013-3-24,68,50,32,9,-1,-9,25,14,7,30.10,30.00,29.89,10,10,10,20,9,26,0.00,0,,261
2013-3-25,66,50,33,10,5,1,33,17,9,30.13,30.06,29.98,10,10,10,18,7,24,0.00,0,,151
2013-3-26,71,56,41,14,11,3,29,18,10,30.18,30.08,29.97,10,10,10,25,12,32,0.00,0,,132
2013-3-27,77,56,35,19,12,7,33,18,7,30.10,30.04,29.99,10,10,10,15,7,20,0.00,0,,195
2013-3-28,77,60,42,27,19,9,36,21,11,30.16,30.10,30.04,10,10,10,16,5,22,0.00,0,,264
2013-3-29,78,62,46,19,16,12,27,18,9,30.20,30.14,30.08,10,10,10,16,5,25,0.00,0,,299
2013-3-30,77,59,41,23,17,12,34,19,10,30.18,30.11,30.04,10,10,10,16,6,30,0.00,1,,295
2013-3-31,78,58,37,27,22,18,45,25,12,30.12,30.06,29.99,10,10,10,13,5,23,0.00,0,,284